sensor_id;sensor_type;location;lat;lon;timestamp;temperature;humidity
11079;DHT22;5592;49.234;7.268;2022-10-31T00:00:52;8.20;99.90
11079;DHT22;5592;49.234;7.268;2022-10-31T00:03:18;8.20;99.90
11079;DHT22;5592;49.234;7.268;2022-10-31T00:08:56;8.10;99.90
11079;DHT22;5592;49.234;7.268;2022-10-31T00:14:26;8.00;99.90
11079;DHT22;5592;49.234;7.268;2022-10-31T00:16:51;8.00;99.90
11079;DHT22;5592;49.234;7.268;2022-10-31T00:21:52;8.00;99.90
11079;DHT22;5592;49.234;7.268;2022-10-31T00:24:18;7.90;99.90
11079;DHT22;5592;49.234;7.268;2022-10-31T00:26:43;7.90;99.90
11079;DHT22;5592;49.234;7.268;2022-10-31T00:34:20;7.90;99.90
11079;DHT22;5592;49.234;7.268;2022-10-31T00:36:45;7.90;99.90
11079;DHT22;5592;49.234;7.268;2022-10-31T00:39:11;7.90;99.90
11079;DHT22;5592;49.234;7.268;2022-10-31T00:41:36;7.90;99.90
11079;DHT22;5592;49.234;7.268;2022-10-31T00:44:02;7.90;99.90
11079;DHT22;5592;49.234;7.268;2022-10-31T00:46:28;7.90;99.90
11079;DHT22;5592;49.234;7.268;2022-10-31T00:48:53;7.90;99.90
11079;DHT22;5592;49.234;7.268;2022-10-31T00:51:19;7.90;99.90
11079;DHT22;5592;49.234;7.268;2022-10-31T00:53:45;8.00;99.90
11079;DHT22;5592;49.234;7.268;2022-10-31T00:56:10;8.00;99.90
11079;DHT22;5592;49.234;7.268;2022-10-31T00:58:36;8.10;99.90
11079;DHT22;5592;49.234;7.268;2022-10-31T01:01:02;8.10;99.90
11079;DHT22;5592;49.234;7.268;2022-10-31T01:03:30;8.10;99.90
11079;DHT22;5592;49.234;7.268;2022-10-31T01:08:27;8.10;99.90
11079;DHT22;5592;49.234;7.268;2022-10-31T01:11:20;8.10;99.90
11079;DHT22;5592;49.234;7.268;2022-10-31T01:13:46;8.10;99.90
11079;DHT22;5592;49.234;7.268;2022-10-31T01:16:15;8.10;99.90
11079;DHT22;5592;49.234;7.268;2022-10-31T01:18:44;8.10;99.90
11079;DHT22;5592;49.234;7.268;2022-10-31T01:21:12;8.00;99.90
11079;DHT22;5592;49.234;7.268;2022-10-31T01:23:38;8.10;99.90
11079;DHT22;5592;49.234;7.268;2022-10-31T01:26:08;8.10;99.90
11079;DHT22;5592;49.234;7.268;2022-10-31T01:28:36;8.10;99.90
11079;DHT22;5592;49.234;7.268;2022-10-31T01:31:04;8.10;99.90
11079;DHT22;5592;49.234;7.268;2022-10-31T01:33:30;8.10;99.90
11079;DHT22;5592;49.234;7.268;2022-10-31T01:35:55;8.10;99.90
11079;DHT22;5592;49.234;7.268;2022-10-31T01:38:21;8.10;99.90
11079;DHT22;5592;49.234;7.268;2022-10-31T01:40:47;8.10;99.90
11079;DHT22;5592;49.234;7.268;2022-10-31T01:43:13;8.10;99.90
11079;DHT22;5592;49.234;7.268;2022-10-31T01:45:40;8.10;99.90
11079;DHT22;5592;49.234;7.268;2022-10-31T01:48:14;8.20;99.90
11079;DHT22;5592;49.234;7.268;2022-10-31T01:50:41;8.30;99.90
11079;DHT22;5592;49.234;7.268;2022-10-31T01:53:08;8.40;99.90
11079;DHT22;5592;49.234;7.268;2022-10-31T01:55:39;8.30;99.90
11079;DHT22;5592;49.234;7.268;2022-10-31T01:58:12;8.30;99.90
11079;DHT22;5592;49.234;7.268;2022-10-31T02:00:44;8.30;99.90
11079;DHT22;5592;49.234;7.268;2022-10-31T02:03:11;8.30;99.90
11079;DHT22;5592;49.234;7.268;2022-10-31T02:05:37;8.40;99.90
11079;DHT22;5592;49.234;7.268;2022-10-31T02:08:12;8.40;99.90
11079;DHT22;5592;49.234;7.268;2022-10-31T02:10:40;8.40;99.90
11079;DHT22;5592;49.234;7.268;2022-10-31T02:13:08;8.40;99.90
11079;DHT22;5592;49.234;7.268;2022-10-31T02:15:35;8.40;99.90
11079;DHT22;5592;49.234;7.268;2022-10-31T02:18:02;8.40;99.90
11079;DHT22;5592;49.234;7.268;2022-10-31T02:21:11;8.40;99.90
11079;DHT22;5592;49.234;7.268;2022-10-31T02:34:20;8.40;99.90
11079;DHT22;5592;49.234;7.268;2022-10-31T02:36:58;8.40;99.90
11079;DHT22;5592;49.234;7.268;2022-10-31T02:42:03;8.40;99.90
11079;DHT22;5592;49.234;7.268;2022-10-31T02:50:14;8.40;99.90
11079;DHT22;5592;49.234;7.268;2022-10-31T02:52:41;8.50;99.90
11079;DHT22;5592;49.234;7.268;2022-10-31T02:57:53;8.40;99.90
11079;DHT22;5592;49.234;7.268;2022-10-31T03:00:20;8.40;99.90
11079;DHT22;5592;49.234;7.268;2022-10-31T03:08:12;8.40;99.90
11079;DHT22;5592;49.234;7.268;2022-10-31T03:19:01;8.30;99.90
11079;DHT22;5592;49.234;7.268;2022-10-31T03:24:01;8.20;99.90
11079;DHT22;5592;49.234;7.268;2022-10-31T03:26:27;8.10;99.90
11079;DHT22;5592;49.234;7.268;2022-10-31T03:28:56;8.10;99.90
11079;DHT22;5592;49.234;7.268;2022-10-31T03:31:27;8.00;99.90
11079;DHT22;5592;49.234;7.268;2022-10-31T03:33:56;8.00;99.90
11079;DHT22;5592;49.234;7.268;2022-10-31T03:36:24;8.00;99.90
11079;DHT22;5592;49.234;7.268;2022-10-31T03:38:51;8.00;99.90
11079;DHT22;5592;49.234;7.268;2022-10-31T03:41:21;8.00;99.90
11079;DHT22;5592;49.234;7.268;2022-10-31T03:43:57;8.00;99.90
11079;DHT22;5592;49.234;7.268;2022-10-31T03:46:25;8.00;99.90
11079;DHT22;5592;49.234;7.268;2022-10-31T03:48:51;8.00;99.90
11079;DHT22;5592;49.234;7.268;2022-10-31T03:51:22;7.90;99.90
11079;DHT22;5592;49.234;7.268;2022-10-31T03:53:55;7.90;99.90
11079;DHT22;5592;49.234;7.268;2022-10-31T03:56:36;7.90;99.90
11079;DHT22;5592;49.234;7.268;2022-10-31T03:59:10;7.80;99.90
11079;DHT22;5592;49.234;7.268;2022-10-31T04:01:42;7.80;99.90
11079;DHT22;5592;49.234;7.268;2022-10-31T04:04:11;7.80;99.90
11079;DHT22;5592;49.234;7.268;2022-10-31T04:06:41;7.80;99.90
11079;DHT22;5592;49.234;7.268;2022-10-31T04:09:09;7.80;99.90
11079;DHT22;5592;49.234;7.268;2022-10-31T04:11:40;7.70;99.90
11079;DHT22;5592;49.234;7.268;2022-10-31T04:14:09;7.70;99.90
11079;DHT22;5592;49.234;7.268;2022-10-31T04:16:41;7.70;99.90
11079;DHT22;5592;49.234;7.268;2022-10-31T04:19:08;7.70;99.90
11079;DHT22;5592;49.234;7.268;2022-10-31T04:21:33;7.60;99.90
11079;DHT22;5592;49.234;7.268;2022-10-31T04:23:59;7.60;99.90
11079;DHT22;5592;49.234;7.268;2022-10-31T04:26:25;7.60;99.90
11079;DHT22;5592;49.234;7.268;2022-10-31T04:28:50;7.50;99.90
11079;DHT22;5592;49.234;7.268;2022-10-31T04:31:16;7.50;99.90
11079;DHT22;5592;49.234;7.268;2022-10-31T04:33:42;7.50;99.90
11079;DHT22;5592;49.234;7.268;2022-10-31T04:36:07;7.50;99.90
11079;DHT22;5592;49.234;7.268;2022-10-31T04:38:33;7.50;99.90
11079;DHT22;5592;49.234;7.268;2022-10-31T04:40:59;7.50;99.90
11079;DHT22;5592;49.234;7.268;2022-10-31T04:43:24;7.50;99.90
11079;DHT22;5592;49.234;7.268;2022-10-31T04:45:50;7.50;99.90
11079;DHT22;5592;49.234;7.268;2022-10-31T04:48:16;7.50;99.90
11079;DHT22;5592;49.234;7.268;2022-10-31T04:50:42;7.50;99.90
11079;DHT22;5592;49.234;7.268;2022-10-31T04:53:08;7.50;99.90
11079;DHT22;5592;49.234;7.268;2022-10-31T04:55:34;7.40;99.90
11079;DHT22;5592;49.234;7.268;2022-10-31T04:58:00;7.40;99.90
11079;DHT22;5592;49.234;7.268;2022-10-31T05:00:25;7.40;99.90
11079;DHT22;5592;49.234;7.268;2022-10-31T05:02:56;7.30;99.90
11079;DHT22;5592;49.234;7.268;2022-10-31T05:05:24;7.40;99.90
11079;DHT22;5592;49.234;7.268;2022-10-31T05:07:51;7.40;99.90
11079;DHT22;5592;49.234;7.268;2022-10-31T05:10:22;7.30;99.90
11079;DHT22;5592;49.234;7.268;2022-10-31T05:12:53;7.30;99.90
11079;DHT22;5592;49.234;7.268;2022-10-31T05:15:21;7.30;99.90
11079;DHT22;5592;49.234;7.268;2022-10-31T05:17:47;7.30;99.90
11079;DHT22;5592;49.234;7.268;2022-10-31T05:20:14;7.20;99.90
11079;DHT22;5592;49.234;7.268;2022-10-31T05:22:51;7.20;99.90
11079;DHT22;5592;49.234;7.268;2022-10-31T05:25:17;7.20;99.90
11079;DHT22;5592;49.234;7.268;2022-10-31T05:27:45;7.20;99.90
11079;DHT22;5592;49.234;7.268;2022-10-31T05:30:16;7.20;99.90
11079;DHT22;5592;49.234;7.268;2022-10-31T05:32:45;7.20;99.90
11079;DHT22;5592;49.234;7.268;2022-10-31T05:35:14;7.10;99.90
11079;DHT22;5592;49.234;7.268;2022-10-31T05:37:40;7.10;99.90
11079;DHT22;5592;49.234;7.268;2022-10-31T05:40:07;7.10;99.90
11079;DHT22;5592;49.234;7.268;2022-10-31T05:42:34;7.10;99.90
11079;DHT22;5592;49.234;7.268;2022-10-31T05:44:59;7.10;99.90
11079;DHT22;5592;49.234;7.268;2022-10-31T05:47:28;7.10;99.90
11079;DHT22;5592;49.234;7.268;2022-10-31T05:49:53;7.10;99.90
11079;DHT22;5592;49.234;7.268;2022-10-31T05:52:19;7.20;99.90
11079;DHT22;5592;49.234;7.268;2022-10-31T05:54:45;7.20;99.90
11079;DHT22;5592;49.234;7.268;2022-10-31T05:57:11;7.10;99.90
11079;DHT22;5592;49.234;7.268;2022-10-31T05:59:36;7.10;99.90
11079;DHT22;5592;49.234;7.268;2022-10-31T06:02:11;7.00;99.90
11079;DHT22;5592;49.234;7.268;2022-10-31T06:04:36;7.00;99.90
11079;DHT22;5592;49.234;7.268;2022-10-31T06:07:02;7.00;99.90
11079;DHT22;5592;49.234;7.268;2022-10-31T06:09:27;7.00;99.90
11079;DHT22;5592;49.234;7.268;2022-10-31T06:11:53;7.00;99.90
11079;DHT22;5592;49.234;7.268;2022-10-31T06:14:19;7.10;99.90
11079;DHT22;5592;49.234;7.268;2022-10-31T06:16:44;7.10;99.90
11079;DHT22;5592;49.234;7.268;2022-10-31T06:19:10;7.10;99.90
11079;DHT22;5592;49.234;7.268;2022-10-31T06:21:35;7.10;99.90
11079;DHT22;5592;49.234;7.268;2022-10-31T06:24:01;7.10;99.90
11079;DHT22;5592;49.234;7.268;2022-10-31T06:26:27;7.10;99.90
11079;DHT22;5592;49.234;7.268;2022-10-31T06:28:52;7.20;99.90
11079;DHT22;5592;49.234;7.268;2022-10-31T06:31:18;7.20;99.90
11079;DHT22;5592;49.234;7.268;2022-10-31T06:33:43;7.30;99.90
11079;DHT22;5592;49.234;7.268;2022-10-31T06:36:09;7.30;99.90
11079;DHT22;5592;49.234;7.268;2022-10-31T06:38:35;7.40;99.90
11079;DHT22;5592;49.234;7.268;2022-10-31T06:41:05;7.40;99.90
11079;DHT22;5592;49.234;7.268;2022-10-31T06:43:31;7.50;99.90
11079;DHT22;5592;49.234;7.268;2022-10-31T06:45:57;7.60;99.90
11079;DHT22;5592;49.234;7.268;2022-10-31T06:48:23;7.70;99.90
11079;DHT22;5592;49.234;7.268;2022-10-31T06:50:51;7.80;99.90
11079;DHT22;5592;49.234;7.268;2022-10-31T06:53:17;7.90;99.90
11079;DHT22;5592;49.234;7.268;2022-10-31T06:55:43;8.00;99.90
11079;DHT22;5592;49.234;7.268;2022-10-31T06:58:10;8.00;99.90
11079;DHT22;5592;49.234;7.268;2022-10-31T07:00:36;8.10;99.90
11079;DHT22;5592;49.234;7.268;2022-10-31T07:03:04;8.30;99.90
11079;DHT22;5592;49.234;7.268;2022-10-31T07:05:31;8.40;99.90
11079;DHT22;5592;49.234;7.268;2022-10-31T07:07:59;8.50;99.90
11079;DHT22;5592;49.234;7.268;2022-10-31T07:10:26;8.60;99.90
11079;DHT22;5592;49.234;7.268;2022-10-31T07:13:01;8.70;99.90
11079;DHT22;5592;49.234;7.268;2022-10-31T07:15:28;8.80;99.90
11079;DHT22;5592;49.234;7.268;2022-10-31T07:17:59;8.90;99.90
11079;DHT22;5592;49.234;7.268;2022-10-31T07:23:01;9.10;99.90
11079;DHT22;5592;49.234;7.268;2022-10-31T07:25:29;9.10;99.90
11079;DHT22;5592;49.234;7.268;2022-10-31T07:27:55;9.20;99.90
11079;DHT22;5592;49.234;7.268;2022-10-31T07:30:21;9.30;99.90
11079;DHT22;5592;49.234;7.268;2022-10-31T07:32:49;9.30;99.90
11079;DHT22;5592;49.234;7.268;2022-10-31T07:35:20;9.40;99.90
11079;DHT22;5592;49.234;7.268;2022-10-31T07:37:46;9.50;99.90
11079;DHT22;5592;49.234;7.268;2022-10-31T07:40:12;9.70;99.90
11079;DHT22;5592;49.234;7.268;2022-10-31T07:42:39;9.80;99.90
11079;DHT22;5592;49.234;7.268;2022-10-31T07:45:06;9.90;99.90
11079;DHT22;5592;49.234;7.268;2022-10-31T07:47:43;10.00;99.90
11079;DHT22;5592;49.234;7.268;2022-10-31T07:50:11;10.00;99.90
11079;DHT22;5592;49.234;7.268;2022-10-31T07:52:37;10.10;99.90
11079;DHT22;5592;49.234;7.268;2022-10-31T07:55:03;10.10;99.90
11079;DHT22;5592;49.234;7.268;2022-10-31T07:57:29;10.20;99.90
11079;DHT22;5592;49.234;7.268;2022-10-31T07:59:55;10.20;99.90
11079;DHT22;5592;49.234;7.268;2022-10-31T08:02:20;10.30;99.90
11079;DHT22;5592;49.234;7.268;2022-10-31T08:04:46;10.40;99.90
11079;DHT22;5592;49.234;7.268;2022-10-31T08:07:12;10.50;99.90
11079;DHT22;5592;49.234;7.268;2022-10-31T08:09:37;10.60;99.90
11079;DHT22;5592;49.234;7.268;2022-10-31T08:12:03;10.70;99.90
11079;DHT22;5592;49.234;7.268;2022-10-31T08:14:29;10.70;99.90
11079;DHT22;5592;49.234;7.268;2022-10-31T08:16:55;10.70;99.90
11079;DHT22;5592;49.234;7.268;2022-10-31T08:19:21;10.90;99.90
11079;DHT22;5592;49.234;7.268;2022-10-31T08:21:49;10.90;99.90
11079;DHT22;5592;49.234;7.268;2022-10-31T08:24:15;11.00;99.90
11079;DHT22;5592;49.234;7.268;2022-10-31T08:26:41;11.20;99.90
11079;DHT22;5592;49.234;7.268;2022-10-31T08:29:06;11.30;99.90
11079;DHT22;5592;49.234;7.268;2022-10-31T08:31:32;11.40;99.90
11079;DHT22;5592;49.234;7.268;2022-10-31T08:33:57;11.50;99.90
11079;DHT22;5592;49.234;7.268;2022-10-31T08:36:23;11.50;99.90
11079;DHT22;5592;49.234;7.268;2022-10-31T08:38:49;11.70;99.90
11079;DHT22;5592;49.234;7.268;2022-10-31T08:41:15;11.80;99.90
11079;DHT22;5592;49.234;7.268;2022-10-31T08:43:40;12.10;99.90
11079;DHT22;5592;49.234;7.268;2022-10-31T08:46:06;12.20;99.90
11079;DHT22;5592;49.234;7.268;2022-10-31T08:48:35;12.30;99.90
11079;DHT22;5592;49.234;7.268;2022-10-31T08:51:00;12.40;99.90
11079;DHT22;5592;49.234;7.268;2022-10-31T08:53:26;12.60;99.90
11079;DHT22;5592;49.234;7.268;2022-10-31T08:55:55;12.70;99.90
11079;DHT22;5592;49.234;7.268;2022-10-31T08:58:23;12.80;99.90
11079;DHT22;5592;49.234;7.268;2022-10-31T09:00:53;13.10;99.90
11079;DHT22;5592;49.234;7.268;2022-10-31T09:03:27;13.20;99.90
11079;DHT22;5592;49.234;7.268;2022-10-31T09:06:01;13.40;99.90
11079;DHT22;5592;49.234;7.268;2022-10-31T09:08:29;13.60;99.90
11079;DHT22;5592;49.234;7.268;2022-10-31T09:10:56;13.70;99.90
11079;DHT22;5592;49.234;7.268;2022-10-31T09:13:24;13.90;99.90
11079;DHT22;5592;49.234;7.268;2022-10-31T09:15:53;14.20;99.90
11079;DHT22;5592;49.234;7.268;2022-10-31T09:18:20;14.40;99.90
11079;DHT22;5592;49.234;7.268;2022-10-31T09:20:47;14.70;99.90
11079;DHT22;5592;49.234;7.268;2022-10-31T09:23:19;14.80;99.90
11079;DHT22;5592;49.234;7.268;2022-10-31T09:25:45;15.10;99.90
11079;DHT22;5592;49.234;7.268;2022-10-31T09:28:14;15.30;99.90
11079;DHT22;5592;49.234;7.268;2022-10-31T09:30:40;15.50;99.90
11079;DHT22;5592;49.234;7.268;2022-10-31T09:33:09;15.70;99.90
11079;DHT22;5592;49.234;7.268;2022-10-31T09:35:35;15.80;99.90
11079;DHT22;5592;49.234;7.268;2022-10-31T09:38:03;15.90;99.90
11079;DHT22;5592;49.234;7.268;2022-10-31T09:52:09;16.80;99.90
11079;DHT22;5592;49.234;7.268;2022-10-31T09:57:12;17.00;99.90
11079;DHT22;5592;49.234;7.268;2022-10-31T09:59:39;17.20;99.90
11079;DHT22;5592;49.234;7.268;2022-10-31T10:04:57;17.70;99.90
11079;DHT22;5592;49.234;7.268;2022-10-31T10:07:53;17.90;99.90
11079;DHT22;5592;49.234;7.268;2022-10-31T10:19:23;18.30;99.90
11079;DHT22;5592;49.234;7.268;2022-10-31T10:30:11;18.60;99.90
11079;DHT22;5592;49.234;7.268;2022-10-31T10:32:59;18.90;99.90
11079;DHT22;5592;49.234;7.268;2022-10-31T10:38:35;19.40;99.90
11079;DHT22;5592;49.234;7.268;2022-10-31T10:41:09;19.40;99.90
11079;DHT22;5592;49.234;7.268;2022-10-31T10:43:38;19.50;99.90
11079;DHT22;5592;49.234;7.268;2022-10-31T11:00:27;19.70;99.90
11079;DHT22;5592;49.234;7.268;2022-10-31T11:02:55;19.60;99.90
11079;DHT22;5592;49.234;7.268;2022-10-31T11:05:40;19.40;99.90
11079;DHT22;5592;49.234;7.268;2022-10-31T11:08:08;19.40;99.90
11079;DHT22;5592;49.234;7.268;2022-10-31T11:10:34;19.30;99.90
11079;DHT22;5592;49.234;7.268;2022-10-31T11:16:10;19.00;99.90
11079;DHT22;5592;49.234;7.268;2022-10-31T11:18:39;18.90;99.90
11079;DHT22;5592;49.234;7.268;2022-10-31T11:21:05;18.90;99.90
11079;DHT22;5592;49.234;7.268;2022-10-31T11:23:32;18.90;99.90
11079;DHT22;5592;49.234;7.268;2022-10-31T11:28:24;18.70;99.90
11079;DHT22;5592;49.234;7.268;2022-10-31T11:30:54;18.80;99.90
11079;DHT22;5592;49.234;7.268;2022-10-31T11:33:31;18.70;99.90
11079;DHT22;5592;49.234;7.268;2022-10-31T11:36:00;18.80;99.90
11079;DHT22;5592;49.234;7.268;2022-10-31T11:38:33;18.70;99.90
11079;DHT22;5592;49.234;7.268;2022-10-31T11:41:16;18.80;99.90
11079;DHT22;5592;49.234;7.268;2022-10-31T11:43:50;18.80;99.90
11079;DHT22;5592;49.234;7.268;2022-10-31T11:46:42;18.70;99.90
11079;DHT22;5592;49.234;7.268;2022-10-31T11:49:33;18.80;99.90
11079;DHT22;5592;49.234;7.268;2022-10-31T11:52:01;18.90;99.90
11079;DHT22;5592;49.234;7.268;2022-10-31T11:54:47;18.90;99.90
11079;DHT22;5592;49.234;7.268;2022-10-31T11:57:44;18.90;99.90
11079;DHT22;5592;49.234;7.268;2022-10-31T12:02:49;19.20;99.90
11079;DHT22;5592;49.234;7.268;2022-10-31T12:05:23;19.10;99.90
11079;DHT22;5592;49.234;7.268;2022-10-31T12:07:51;19.10;99.90
11079;DHT22;5592;49.234;7.268;2022-10-31T12:10:21;19.00;99.90
11079;DHT22;5592;49.234;7.268;2022-10-31T12:15:29;19.10;99.90
11079;DHT22;5592;49.234;7.268;2022-10-31T12:40:32;20.30;99.90
11079;DHT22;5592;49.234;7.268;2022-10-31T12:59:50;21.10;99.90
11079;DHT22;5592;49.234;7.268;2022-10-31T13:02:21;21.10;99.90
11079;DHT22;5592;49.234;7.268;2022-10-31T13:08:06;21.00;99.90
11079;DHT22;5592;49.234;7.268;2022-10-31T13:11:22;20.80;99.90
11079;DHT22;5592;49.234;7.268;2022-10-31T13:14:00;20.40;99.90
11079;DHT22;5592;49.234;7.268;2022-10-31T13:16:30;20.50;99.90
11079;DHT22;5592;49.234;7.268;2022-10-31T13:19:23;20.30;99.90
11079;DHT22;5592;49.234;7.268;2022-10-31T13:22:07;20.00;99.90
11079;DHT22;5592;49.234;7.268;2022-10-31T13:28:05;19.50;99.90
11079;DHT22;5592;49.234;7.268;2022-10-31T13:30:37;19.50;99.90
11079;DHT22;5592;49.234;7.268;2022-10-31T13:33:21;19.40;99.90
11079;DHT22;5592;49.234;7.268;2022-10-31T13:38:50;19.40;99.90
11079;DHT22;5592;49.234;7.268;2022-10-31T13:41:30;19.30;99.90
11079;DHT22;5592;49.234;7.268;2022-10-31T13:44:14;19.30;99.90
11079;DHT22;5592;49.234;7.268;2022-10-31T13:46:42;19.20;99.90
11079;DHT22;5592;49.234;7.268;2022-10-31T13:49:24;19.00;99.90
11079;DHT22;5592;49.234;7.268;2022-10-31T13:51:50;18.90;99.90
11079;DHT22;5592;49.234;7.268;2022-10-31T13:54:22;18.70;99.90
11079;DHT22;5592;49.234;7.268;2022-10-31T13:56:51;18.70;99.90
11079;DHT22;5592;49.234;7.268;2022-10-31T13:59:23;18.60;99.90
11079;DHT22;5592;49.234;7.268;2022-10-31T14:01:55;18.50;99.90
11079;DHT22;5592;49.234;7.268;2022-10-31T14:04:28;18.50;99.90
11079;DHT22;5592;49.234;7.268;2022-10-31T14:07:11;18.60;99.90
11079;DHT22;5592;49.234;7.268;2022-10-31T14:10:57;18.70;99.90
11079;DHT22;5592;49.234;7.268;2022-10-31T14:12:54;19.00;99.90
11079;DHT22;5592;49.234;7.268;2022-10-31T14:15:28;19.30;99.90
11079;DHT22;5592;49.234;7.268;2022-10-31T14:17:56;19.40;99.90
11079;DHT22;5592;49.234;7.268;2022-10-31T14:22:51;19.60;99.90
11079;DHT22;5592;49.234;7.268;2022-10-31T14:25:32;19.60;99.90
11079;DHT22;5592;49.234;7.268;2022-10-31T14:28:00;19.50;99.90
11079;DHT22;5592;49.234;7.268;2022-10-31T14:30:28;19.50;99.90
11079;DHT22;5592;49.234;7.268;2022-10-31T14:32:58;19.50;99.90
11079;DHT22;5592;49.234;7.268;2022-10-31T14:38:38;19.20;99.90
11079;DHT22;5592;49.234;7.268;2022-10-31T14:41:15;19.10;99.90
11079;DHT22;5592;49.234;7.268;2022-10-31T14:44:14;19.00;99.90
11079;DHT22;5592;49.234;7.268;2022-10-31T14:46:58;19.00;99.90
11079;DHT22;5592;49.234;7.268;2022-10-31T14:52:48;18.90;99.90
11079;DHT22;5592;49.234;7.268;2022-10-31T14:55:16;18.80;99.90
11079;DHT22;5592;49.234;7.268;2022-10-31T14:58:08;18.60;99.90
11079;DHT22;5592;49.234;7.268;2022-10-31T15:00:33;18.50;99.90
11079;DHT22;5592;49.234;7.268;2022-10-31T15:03:16;18.40;99.90
11079;DHT22;5592;49.234;7.268;2022-10-31T15:05:58;18.40;99.90
11079;DHT22;5592;49.234;7.268;2022-10-31T15:08:35;18.30;99.90
11079;DHT22;5592;49.234;7.268;2022-10-31T15:11:10;18.10;99.90
11079;DHT22;5592;49.234;7.268;2022-10-31T15:13:42;17.90;99.90
11079;DHT22;5592;49.234;7.268;2022-10-31T15:16:10;17.70;99.90
11079;DHT22;5592;49.234;7.268;2022-10-31T15:18:44;17.60;99.90
11079;DHT22;5592;49.234;7.268;2022-10-31T15:21:14;17.40;99.90
11079;DHT22;5592;49.234;7.268;2022-10-31T15:23:40;17.20;99.90
11079;DHT22;5592;49.234;7.268;2022-10-31T15:26:05;17.10;99.90
11079;DHT22;5592;49.234;7.268;2022-10-31T15:28:31;17.00;99.90
11079;DHT22;5592;49.234;7.268;2022-10-31T15:30:59;16.80;99.90
11079;DHT22;5592;49.234;7.268;2022-10-31T15:33:28;16.50;99.90
11079;DHT22;5592;49.234;7.268;2022-10-31T15:36:00;16.30;99.90
11079;DHT22;5592;49.234;7.268;2022-10-31T15:38:27;16.00;99.90
11079;DHT22;5592;49.234;7.268;2022-10-31T15:41:03;15.80;99.90
11079;DHT22;5592;49.234;7.268;2022-10-31T15:43:35;15.60;99.90
11079;DHT22;5592;49.234;7.268;2022-10-31T15:46:02;15.30;99.90
11079;DHT22;5592;49.234;7.268;2022-10-31T15:48:29;15.10;99.90
11079;DHT22;5592;49.234;7.268;2022-10-31T15:50:57;14.90;99.90
11079;DHT22;5592;49.234;7.268;2022-10-31T15:53:33;14.70;99.90
11079;DHT22;5592;49.234;7.268;2022-10-31T15:56:04;14.70;99.90
11079;DHT22;5592;49.234;7.268;2022-10-31T15:58:43;14.60;99.90
11079;DHT22;5592;49.234;7.268;2022-10-31T16:01:35;14.40;99.90
11079;DHT22;5592;49.234;7.268;2022-10-31T16:04:25;14.40;99.90
11079;DHT22;5592;49.234;7.268;2022-10-31T16:07:16;14.30;99.90
11079;DHT22;5592;49.234;7.268;2022-10-31T16:10:22;14.20;99.90
11079;DHT22;5592;49.234;7.268;2022-10-31T16:12:52;14.10;99.90
11079;DHT22;5592;49.234;7.268;2022-10-31T16:15:20;14.00;99.90
11079;DHT22;5592;49.234;7.268;2022-10-31T16:17:50;13.80;99.90
11079;DHT22;5592;49.234;7.268;2022-10-31T16:20:22;13.70;99.90
11079;DHT22;5592;49.234;7.268;2022-10-31T16:22:50;13.80;99.90
11079;DHT22;5592;49.234;7.268;2022-10-31T16:25:24;13.70;99.90
11079;DHT22;5592;49.234;7.268;2022-10-31T16:27:52;13.60;99.90
11079;DHT22;5592;49.234;7.268;2022-10-31T16:30:38;13.50;99.90
11079;DHT22;5592;49.234;7.268;2022-10-31T16:33:19;13.50;99.90
11079;DHT22;5592;49.234;7.268;2022-10-31T16:35:45;13.40;99.90
11079;DHT22;5592;49.234;7.268;2022-10-31T16:38:11;13.40;99.90
11079;DHT22;5592;49.234;7.268;2022-10-31T16:40:38;13.20;99.90
11079;DHT22;5592;49.234;7.268;2022-10-31T16:43:03;13.20;99.90
11079;DHT22;5592;49.234;7.268;2022-10-31T16:45:31;13.20;99.90
11079;DHT22;5592;49.234;7.268;2022-10-31T16:48:05;13.10;99.90
11079;DHT22;5592;49.234;7.268;2022-10-31T16:50:31;13.10;99.90
11079;DHT22;5592;49.234;7.268;2022-10-31T16:52:58;12.90;99.90
11079;DHT22;5592;49.234;7.268;2022-10-31T16:55:23;12.80;99.90
11079;DHT22;5592;49.234;7.268;2022-10-31T16:57:55;12.60;99.90
11079;DHT22;5592;49.234;7.268;2022-10-31T17:00:28;12.50;99.90
11079;DHT22;5592;49.234;7.268;2022-10-31T17:02:56;12.40;99.90
11079;DHT22;5592;49.234;7.268;2022-10-31T17:05:22;12.30;99.90
11079;DHT22;5592;49.234;7.268;2022-10-31T17:07:58;12.20;99.90
11079;DHT22;5592;49.234;7.268;2022-10-31T17:10:24;12.20;99.90
11079;DHT22;5592;49.234;7.268;2022-10-31T17:12:50;12.20;99.90
11079;DHT22;5592;49.234;7.268;2022-10-31T17:15:20;12.10;99.90
11079;DHT22;5592;49.234;7.268;2022-10-31T17:17:46;12.10;99.90
11079;DHT22;5592;49.234;7.268;2022-10-31T17:20:27;12.00;99.90
11079;DHT22;5592;49.234;7.268;2022-10-31T17:22:54;11.90;99.90
11079;DHT22;5592;49.234;7.268;2022-10-31T17:25:23;11.90;99.90
11079;DHT22;5592;49.234;7.268;2022-10-31T17:27:50;11.80;99.90
11079;DHT22;5592;49.234;7.268;2022-10-31T17:30:16;11.80;99.90
11079;DHT22;5592;49.234;7.268;2022-10-31T17:32:43;11.80;99.90
11079;DHT22;5592;49.234;7.268;2022-10-31T17:35:10;11.70;99.90
11079;DHT22;5592;49.234;7.268;2022-10-31T17:37:37;11.70;99.90
11079;DHT22;5592;49.234;7.268;2022-10-31T17:40:04;11.70;99.90
11079;DHT22;5592;49.234;7.268;2022-10-31T17:42:30;11.60;99.90
11079;DHT22;5592;49.234;7.268;2022-10-31T17:44:55;11.50;99.90
11079;DHT22;5592;49.234;7.268;2022-10-31T17:47:21;11.40;99.90
11079;DHT22;5592;49.234;7.268;2022-10-31T17:49:47;11.30;99.90
11079;DHT22;5592;49.234;7.268;2022-10-31T17:52:12;11.20;99.90
11079;DHT22;5592;49.234;7.268;2022-10-31T17:54:38;11.10;99.90
11079;DHT22;5592;49.234;7.268;2022-10-31T17:57:03;11.10;99.90
11079;DHT22;5592;49.234;7.268;2022-10-31T17:59:29;10.90;99.90
11079;DHT22;5592;49.234;7.268;2022-10-31T18:01:58;10.90;99.90
11079;DHT22;5592;49.234;7.268;2022-10-31T18:04:25;10.90;99.90
11079;DHT22;5592;49.234;7.268;2022-10-31T18:06:50;10.80;99.90
11079;DHT22;5592;49.234;7.268;2022-10-31T18:09:16;10.80;99.90
11079;DHT22;5592;49.234;7.268;2022-10-31T18:11:42;10.70;99.90
11079;DHT22;5592;49.234;7.268;2022-10-31T18:14:09;10.60;99.90
11079;DHT22;5592;49.234;7.268;2022-10-31T18:16:35;10.50;99.90
11079;DHT22;5592;49.234;7.268;2022-10-31T18:19:01;10.40;99.90
11079;DHT22;5592;49.234;7.268;2022-10-31T18:21:28;10.40;99.90
11079;DHT22;5592;49.234;7.268;2022-10-31T18:23:55;10.40;99.90
11079;DHT22;5592;49.234;7.268;2022-10-31T18:26:22;10.30;99.90
11079;DHT22;5592;49.234;7.268;2022-10-31T18:28:51;10.30;99.90
11079;DHT22;5592;49.234;7.268;2022-10-31T18:31:17;10.30;99.90
11079;DHT22;5592;49.234;7.268;2022-10-31T18:33:43;10.30;99.90
11079;DHT22;5592;49.234;7.268;2022-10-31T18:36:09;10.20;99.90
11079;DHT22;5592;49.234;7.268;2022-10-31T18:38:40;10.30;99.90
11079;DHT22;5592;49.234;7.268;2022-10-31T18:41:07;10.30;99.90
11079;DHT22;5592;49.234;7.268;2022-10-31T18:43:33;10.30;99.90
11079;DHT22;5592;49.234;7.268;2022-10-31T18:46:01;10.30;99.90
11079;DHT22;5592;49.234;7.268;2022-10-31T18:48:27;10.20;99.90
11079;DHT22;5592;49.234;7.268;2022-10-31T18:53:27;10.10;99.90
11079;DHT22;5592;49.234;7.268;2022-10-31T18:55:53;10.20;99.90
11079;DHT22;5592;49.234;7.268;2022-10-31T18:58:18;10.20;99.90
11079;DHT22;5592;49.234;7.268;2022-10-31T19:00:44;10.20;99.90
11079;DHT22;5592;49.234;7.268;2022-10-31T19:03:10;10.20;99.90
11079;DHT22;5592;49.234;7.268;2022-10-31T19:05:36;10.20;99.90
11079;DHT22;5592;49.234;7.268;2022-10-31T19:08:03;10.20;99.90